createdAt,value
2022-12-22T00:02:40.165Z,100178.63
2022-12-22T00:05:36.657Z,100189.59
2022-12-22T00:08:23.199Z,100192.59
2022-12-22T00:11:09.230Z,100181.16
2022-12-22T00:13:55.227Z,100189.44
2022-12-22T00:16:54.811Z,100180.81
2022-12-22T00:19:41.176Z,100175.25
2022-12-22T00:22:33.156Z,100178.28
2022-12-22T00:25:18.498Z,100172.56
2022-12-22T00:28:06.639Z,100166.97
2022-12-22T00:30:52.307Z,100169.69
2022-12-22T00:33:39.746Z,100161.75
2022-12-22T00:36:29.053Z,100159.91
2022-12-22T00:39:14.591Z,100155.50
2022-12-22T00:41:59.873Z,100148.75
2022-12-22T00:44:45.076Z,100148.44
2022-12-22T00:47:46.520Z,100137.28
2022-12-22T00:50:32.835Z,100139.47
2022-12-22T00:53:19.227Z,100142.50
2022-12-22T00:56:06.874Z,100127.84
2022-12-22T00:58:55.278Z,100126.81
2022-12-22T01:01:40.689Z,100120.72
2022-12-22T01:04:32.182Z,100125.78
2022-12-22T01:07:17.459Z,100132.88
2022-12-22T01:10:10.094Z,100126.97
2022-12-22T01:12:58.574Z,100127.16
2022-12-22T01:15:48.100Z,100119.72
2022-12-22T01:18:34.363Z,100123.06
2022-12-22T01:21:20.543Z,100114.28
2022-12-22T01:24:08.887Z,100115.50
2022-12-22T01:26:58.820Z,100110.75
2022-12-22T01:29:44.106Z,100099.25
2022-12-22T01:32:37.130Z,100113.25
2022-12-22T01:35:22.858Z,100104.66
2022-12-22T01:38:08.006Z,100105.53
2022-12-22T01:40:55.593Z,100097.41
2022-12-22T01:43:46.394Z,100098.75
2022-12-22T01:46:47.574Z,100093.38
2022-12-22T01:49:39.908Z,100078.53
2022-12-22T01:52:26.562Z,100083.94
2022-12-22T01:55:13.257Z,100087.25
2022-12-22T01:58:01.332Z,100080.88
2022-12-22T02:00:47.106Z,100074.81
2022-12-22T02:03:40.917Z,100068.03
2022-12-22T02:06:45.282Z,100069.06
2022-12-22T02:09:54.530Z,100064.00
2022-12-22T02:12:58.073Z,100068.50
2022-12-22T02:16:00.117Z,100061.59
2022-12-22T02:18:57.861Z,100062.22
2022-12-22T02:21:47.896Z,100055.19
2022-12-22T02:25:00.938Z,100055.56
2022-12-22T02:27:47.325Z,100046.59
2022-12-22T02:30:35.677Z,100045.59
2022-12-22T02:33:23.552Z,100047.97
2022-12-22T02:36:34.640Z,100046.63
2022-12-22T02:39:56.667Z,100047.44
2022-12-22T02:43:25.041Z,100054.69
2022-12-22T02:46:55.119Z,100051.13
2022-12-22T02:49:51.272Z,100047.50
2022-12-22T02:52:52.110Z,100036.41
2022-12-22T02:55:38.861Z,100040.97
2022-12-22T02:58:24.931Z,100030.50
2022-12-22T03:01:11.085Z,100029.28
2022-12-22T03:03:56.662Z,100032.59
2022-12-22T03:06:42.129Z,100023.66
2022-12-22T03:09:27.324Z,100022.06
2022-12-22T03:12:12.879Z,100022.03
2022-12-22T03:14:58.545Z,100007.09
2022-12-22T03:17:43.705Z,100007.38
2022-12-22T03:20:29.658Z,100014.34
2022-12-22T03:23:25.610Z,100007.81
2022-12-22T03:25:55.287Z,99992.84
2022-12-22T03:28:28.203Z,99987.78
2022-12-22T03:31:05.219Z,99992.84
2022-12-22T03:33:33.040Z,99991.50
2022-12-22T03:36:02.758Z,99982.75
2022-12-22T03:38:32.310Z,99979.31
2022-12-22T03:40:59.414Z,99988.44
2022-12-22T03:43:47.811Z,99986.78
2022-12-22T03:46:17.583Z,99975.31
2022-12-22T03:49:05.719Z,99985.34
2022-12-22T03:51:45.277Z,99973.53
2022-12-22T03:54:16.912Z,99976.63
2022-12-22T03:56:46.779Z,99968.00
2022-12-22T03:59:16.865Z,99957.69
2022-12-22T04:01:52.215Z,99956.78
2022-12-22T04:04:24.236Z,99958.09
2022-12-22T04:06:54.291Z,99955.78
2022-12-22T04:09:22.427Z,99952.28
2022-12-22T04:12:08.295Z,99949.00
2022-12-22T04:14:38.263Z,99942.28
2022-12-22T04:17:10.761Z,99945.28
2022-12-22T04:19:37.635Z,99948.66
2022-12-22T04:22:04.676Z,99944.19
2022-12-22T04:24:34.223Z,99945.97
2022-12-22T04:27:01.156Z,99935.16
2022-12-22T04:29:28.097Z,99935.16
2022-12-22T04:31:57.192Z,99940.81
2022-12-22T04:34:24.274Z,99932.84
2022-12-22T04:36:53.726Z,99929.50
2022-12-22T04:39:20.925Z,99930.81
2022-12-22T04:41:47.868Z,99927.94
2022-12-22T04:44:14.749Z,99922.03
2022-12-22T04:46:41.677Z,99916.47
2022-12-22T04:49:08.826Z,99907.97
2022-12-22T04:51:35.867Z,99901.47
2022-12-22T04:54:05.283Z,99901.25
2022-12-22T04:56:32.324Z,99899.88
2022-12-22T04:58:59.309Z,99889.91
2022-12-22T05:01:26.610Z,99885.94
2022-12-22T05:03:58.397Z,99886.22
2022-12-22T05:06:27.983Z,99890.75
2022-12-22T05:08:57.596Z,99886.34
2022-12-22T05:11:24.632Z,99883.50
2022-12-22T05:13:51.617Z,99883.75
2022-12-22T05:16:18.838Z,99874.09
2022-12-22T05:18:48.355Z,99871.97
2022-12-22T05:21:19.519Z,99864.63
2022-12-22T05:23:50.223Z,99859.31
2022-12-22T05:26:21.261Z,99863.19
2022-12-22T05:28:48.414Z,99855.00
2022-12-22T05:31:24.693Z,99838.41
2022-12-22T05:33:52.260Z,99837.34
2022-12-22T05:36:20.003Z,99839.06
2022-12-22T05:38:46.993Z,99836.47
2022-12-22T05:41:14.373Z,99832.19
2022-12-22T05:43:43.682Z,99832.84
2022-12-22T05:46:13.900Z,99828.63
2022-12-22T05:48:43.381Z,99829.75
2022-12-22T05:51:11.044Z,99832.34
2022-12-22T05:53:38.873Z,99832.34
2022-12-22T05:56:07.271Z,99834.94
2022-12-22T05:58:38.956Z,99843.38
2022-12-22T06:01:07.102Z,99855.22
2022-12-22T06:03:36.785Z,99841.22
2022-12-22T06:06:04.144Z,99843.84
2022-12-22T06:08:34.108Z,99841.41
2022-12-22T06:11:03.284Z,99838.91
2022-12-22T06:13:30.146Z,99842.06
2022-12-22T06:15:59.581Z,99834.59
2022-12-22T06:18:29.509Z,99827.63
2022-12-22T06:20:59.012Z,99822.91
2022-12-22T06:23:30.398Z,99822.19
2022-12-22T06:26:00.928Z,99823.34
2022-12-22T06:28:31.255Z,99815.91
2022-12-22T06:30:58.240Z,99814.53
2022-12-22T06:33:25.307Z,99806.47
2022-12-22T06:35:58.847Z,99815.38
2022-12-22T06:38:27.734Z,99810.56
2022-12-22T06:40:54.591Z,99804.13
2022-12-22T06:43:24.186Z,99807.81
2022-12-22T06:45:53.796Z,99798.25
2022-12-22T06:48:21.027Z,99810.22
2022-12-22T06:50:47.952Z,99808.66
2022-12-22T06:53:14.833Z,99810.81
2022-12-22T06:55:43.816Z,99805.31
2022-12-22T06:58:13.309Z,99806.50
2022-12-22T07:00:48.421Z,99810.41
2022-12-22T07:03:17.615Z,99823.34
2022-12-22T07:05:47.739Z,99827.03
2022-12-22T07:08:14.635Z,99823.31
2022-12-22T07:11:00.743Z,99822.56
2022-12-22T07:13:34.228Z,99819.13
2022-12-22T07:16:09.060Z,99808.56
2022-12-22T07:18:43.745Z,99809.13
2022-12-22T07:21:13.931Z,99827.56
2022-12-22T07:23:41.589Z,99828.50
2022-12-22T07:26:14.874Z,99813.22
2022-12-22T07:28:42.434Z,99811.91
2022-12-22T07:31:11.771Z,99819.84
2022-12-22T07:33:39.062Z,99823.19
2022-12-22T07:36:18.627Z,99809.69
2022-12-22T07:38:51.096Z,99811.56
2022-12-22T07:41:38.780Z,99807.16
2022-12-22T07:44:05.926Z,99808.28
2022-12-22T07:46:41.081Z,99799.97
2022-12-22T07:49:32.428Z,99803.72
2022-12-22T07:52:04.218Z,99791.50
2022-12-22T07:54:34.086Z,99802.00
2022-12-22T07:57:07.056Z,99791.03
2022-12-22T07:59:33.928Z,99795.59
2022-12-22T08:02:05.436Z,99803.25
2022-12-22T08:04:34.967Z,99805.84
2022-12-22T08:07:03.962Z,99802.22
2022-12-22T08:09:33.237Z,99803.88
2022-12-22T08:12:02.214Z,99813.88
2022-12-22T08:14:31.536Z,99808.84
2022-12-22T08:16:58.391Z,99817.53
2022-12-22T08:19:25.249Z,99817.91
2022-12-22T08:21:53.353Z,99819.38
2022-12-22T08:24:21.560Z,99813.69
2022-12-22T08:26:57.910Z,99810.97
2022-12-22T08:29:33.113Z,99816.44
2022-12-22T08:32:03.338Z,99802.94
2022-12-22T08:34:31.127Z,99798.28
2022-12-22T08:37:02.727Z,99796.16
2022-12-22T08:39:33.212Z,99792.44
2022-12-22T08:42:05.995Z,99789.91
2022-12-22T08:44:32.965Z,99800.91
2022-12-22T08:47:02.990Z,99801.19
2022-12-22T08:49:32.024Z,99798.88
2022-12-22T08:51:59.402Z,99809.97
2022-12-22T08:54:26.613Z,99808.66
2022-12-22T08:56:53.501Z,99803.72
2022-12-22T08:59:22.564Z,99810.63
2022-12-22T09:01:51.204Z,99804.94
2022-12-22T09:04:21.452Z,99808.84
2022-12-22T09:06:48.822Z,99803.91
2022-12-22T09:09:18.376Z,99817.53
2022-12-22T09:11:45.358Z,99817.44
2022-12-22T09:14:12.983Z,99815.09
2022-12-22T09:16:43.071Z,99812.13
2022-12-22T09:19:12.836Z,99821.44
2022-12-22T09:21:41.834Z,99815.44
2022-12-22T09:24:09.014Z,99814.94
2022-12-22T09:26:38.636Z,99815.97
2022-12-22T09:29:06.871Z,99807.78
2022-12-22T09:31:35.908Z,99811.72
2022-12-22T09:34:02.892Z,99813.97
2022-12-22T09:36:31.559Z,99812.34
2022-12-22T09:39:06.243Z,99809.78
2022-12-22T09:41:50.996Z,99810.06
2022-12-22T09:44:29.746Z,99810.63
2022-12-22T09:47:01.005Z,99814.03
2022-12-22T09:49:30.311Z,99806.03
2022-12-22T09:52:00.612Z,99803.97
2022-12-22T09:54:29.029Z,99801.91
2022-12-22T09:56:57.727Z,99797.34
2022-12-22T09:59:28.183Z,99804.06
2022-12-22T10:02:20.940Z,99799.59
2022-12-22T10:05:12.327Z,99807.34
2022-12-22T10:07:43.645Z,99808.88
2022-12-22T10:10:25.390Z,99808.94
2022-12-22T10:12:56.472Z,99813.16
2022-12-22T10:15:25.930Z,99811.91
2022-12-22T10:18:10.002Z,99822.25
2022-12-22T10:20:39.728Z,99823.53
2022-12-22T10:23:21.824Z,99816.19
2022-12-22T10:26:27.378Z,99817.19
2022-12-22T10:28:50.145Z,99813.25
2022-12-22T10:31:23.167Z,99804.69
2022-12-22T10:33:53.984Z,99791.19
2022-12-22T10:36:30.801Z,99788.06
2022-12-22T10:39:12.511Z,99785.19
2022-12-22T10:41:47.994Z,99796.56
2022-12-22T10:44:18.613Z,99792.84
2022-12-22T10:46:59.012Z,99803.84
2022-12-22T10:52:32.491Z,99795.00
2022-12-22T10:55:29.360Z,99806.34
2022-12-22T10:58:22.554Z,99808.13
2022-12-22T11:01:05.144Z,99806.59
2022-12-22T11:03:32.975Z,99809.41
2022-12-22T11:06:06.451Z,99809.06
2022-12-22T11:08:33.316Z,99825.59
2022-12-22T11:11:32.519Z,99810.63
2022-12-22T11:14:31.505Z,99806.34
2022-12-22T11:17:23.366Z,99818.53
2022-12-22T11:20:40.162Z,99820.31
2022-12-22T11:23:18.250Z,99812.44
2022-12-22T11:26:08.028Z,99817.25
2022-12-22T11:29:13.460Z,99813.53
2022-12-22T11:32:10.558Z,99814.66
2022-12-22T11:35:08.651Z,99827.53
2022-12-22T11:37:44.701Z,99831.69
2022-12-22T11:40:49.002Z,99838.72
2022-12-22T11:43:24.101Z,99836.84
2022-12-22T11:45:51.004Z,99840.34
2022-12-22T11:48:58.592Z,99843.38
2022-12-22T11:51:48.750Z,99848.31
2022-12-22T11:55:13.925Z,99840.31
2022-12-22T11:58:23.479Z,99838.91
2022-12-22T12:01:37.512Z,99843.59
2022-12-22T12:04:36.826Z,99849.47
2022-12-22T12:07:16.641Z,99849.84
2022-12-22T12:10:14.006Z,99858.72
2022-12-22T12:13:11.979Z,99860.97
2022-12-22T12:15:47.476Z,99867.06
2022-12-22T12:18:47.898Z,99874.94
2022-12-22T12:21:26.009Z,99863.88
2022-12-22T12:24:38.113Z,99872.63
2022-12-22T12:27:21.092Z,99871.84
2022-12-22T12:33:36.465Z,99870.59
2022-12-22T12:36:21.097Z,99874.03
2022-12-22T12:39:33.310Z,99863.94
2022-12-22T12:42:25.192Z,99877.94
2022-12-22T12:44:56.380Z,99872.91
2022-12-22T12:47:35.957Z,99870.47
2022-12-22T12:50:31.777Z,99878.00
2022-12-22T12:52:58.835Z,99874.00
2022-12-22T12:55:54.101Z,99881.16
2022-12-22T12:58:42.906Z,99880.63
2022-12-22T13:01:29.350Z,99895.41
2022-12-22T13:04:04.341Z,99905.22
2022-12-22T13:06:51.271Z,99911.25
2022-12-22T13:12:58.218Z,99927.38
2022-12-22T13:15:42.278Z,99930.16
2022-12-22T13:18:32.909Z,99930.59
2022-12-22T13:24:28.931Z,99915.63
2022-12-22T13:27:08.000Z,99919.59
2022-12-22T13:29:44.570Z,99931.41
2022-12-22T13:32:27.733Z,99945.69
2022-12-22T13:35:30.818Z,99943.41
2022-12-22T13:38:03.375Z,99944.16
2022-12-22T13:40:43.180Z,99946.84
2022-12-22T13:43:26.569Z,99951.50
2022-12-22T13:46:00.158Z,99952.41
2022-12-22T13:48:53.039Z,99963.16
2022-12-22T13:51:32.579Z,99959.25
2022-12-22T13:54:17.285Z,99955.66
2022-12-22T13:56:47.965Z,99957.56
2022-12-22T13:59:40.176Z,99954.56
2022-12-22T14:02:10.320Z,99948.16
2022-12-22T14:04:40.542Z,99949.78
2022-12-22T14:07:17.387Z,99961.44
2022-12-22T14:09:50.190Z,99962.38
2022-12-22T14:12:25.704Z,99956.06
2022-12-22T14:14:57.603Z,99957.28
2022-12-22T14:17:38.343Z,99971.53
2022-12-22T14:20:40.252Z,99970.31
2022-12-22T14:23:22.863Z,99965.50
2022-12-22T14:25:53.550Z,99966.66
2022-12-22T14:28:29.558Z,99966.44
2022-12-22T14:31:00.164Z,99963.66
2022-12-22T14:33:33.736Z,99963.78
2022-12-22T14:36:21.730Z,99961.97
2022-12-22T14:38:51.223Z,99969.41
2022-12-22T14:41:42.882Z,99973.09
2022-12-22T14:44:45.500Z,99965.53
2022-12-22T14:47:12.549Z,99966.38
2022-12-22T14:50:14.545Z,99971.72
2022-12-22T14:52:51.244Z,99971.34
2022-12-22T14:55:36.898Z,99978.72
2022-12-22T14:58:09.985Z,99986.75
2022-12-22T15:00:46.039Z,99987.69
2022-12-22T15:03:25.355Z,99993.97
2022-12-22T15:05:53.377Z,99991.00
2022-12-22T15:08:40.769Z,99990.88
2022-12-22T15:11:17.601Z,99997.78
2022-12-22T15:13:46.264Z,99998.44
2022-12-22T15:16:19.442Z,99995.97
2022-12-22T15:18:49.886Z,100001.44
2022-12-22T15:21:19.403Z,100000.13
2022-12-22T15:23:46.875Z,100002.97
2022-12-22T15:26:13.742Z,100002.72
2022-12-22T15:28:43.224Z,100012.22
2022-12-22T15:31:18.846Z,100019.25
2022-12-22T15:33:45.974Z,100028.75
2022-12-22T15:36:16.702Z,100035.78
2022-12-22T15:38:43.791Z,100046.78
2022-12-22T15:41:12.861Z,100044.34
2022-12-22T15:46:26.766Z,100044.13
2022-12-22T15:48:53.760Z,100057.50
2022-12-22T15:51:29.167Z,100045.72
2022-12-22T15:53:57.600Z,100047.34
2022-12-22T15:56:27.611Z,100047.84
2022-12-22T15:59:00.168Z,100045.91
2022-12-22T16:01:29.377Z,100048.59
2022-12-22T16:03:56.388Z,100049.94
2022-12-22T16:06:23.263Z,100047.06
2022-12-22T16:08:53.883Z,100050.09
2022-12-22T16:11:23.571Z,100057.50
2022-12-22T16:13:52.948Z,100059.91
2022-12-22T16:16:20.244Z,100060.75
2022-12-22T16:18:47.406Z,100054.13
2022-12-22T16:21:18.309Z,100059.38
2022-12-22T16:23:48.462Z,100058.56
2022-12-22T16:26:23.440Z,100057.09
2022-12-22T16:28:50.508Z,100066.41
2022-12-22T16:31:25.477Z,100058.31
2022-12-22T16:33:57.678Z,100065.06
2022-12-22T16:36:24.512Z,100061.19
2022-12-22T16:38:51.652Z,100063.03
2022-12-22T16:41:25.695Z,100060.00
2022-12-22T16:46:39.980Z,100064.03
2022-12-22T16:49:09.269Z,100060.34
2022-12-22T16:51:40.251Z,100064.56
2022-12-22T16:54:09.772Z,100055.28
2022-12-22T16:56:38.491Z,100062.03
2022-12-22T16:59:07.854Z,100064.72
2022-12-22T17:02:01.262Z,100062.03
2022-12-22T17:04:33.619Z,100060.34
2022-12-22T17:07:04.418Z,100059.69
2022-12-22T17:09:53.221Z,100051.75
2022-12-22T17:12:24.964Z,100057.31
2022-12-22T17:14:56.501Z,100065.72
2022-12-22T17:17:34.042Z,100054.28
2022-12-22T17:20:04.556Z,100057.28
2022-12-22T17:22:33.719Z,100058.09
2022-12-22T17:25:04.468Z,100054.22
2022-12-22T17:27:32.908Z,100064.47
2022-12-22T17:30:11.632Z,100056.06
2022-12-22T17:32:43.177Z,100066.69
2022-12-22T17:35:17.622Z,100051.19
2022-12-22T17:37:50.096Z,100045.13
2022-12-22T17:40:32.012Z,100046.47
2022-12-22T17:42:58.920Z,100048.16
2022-12-22T17:45:26.313Z,100049.13
2022-12-22T17:47:53.145Z,100047.97
2022-12-22T17:50:23.081Z,100042.38
2022-12-22T17:52:55.456Z,100043.06
2022-12-22T17:58:17.809Z,100036.03
2022-12-22T18:00:47.174Z,100029.75
2022-12-22T18:03:15.566Z,100021.88
2022-12-22T18:05:47.896Z,100023.38
2022-12-22T18:08:19.392Z,100020.97
2022-12-22T18:10:47.440Z,100022.81
2022-12-22T18:13:20.129Z,100011.34
2022-12-22T18:15:47.538Z,100014.22
2022-12-22T18:18:18.522Z,100009.22
2022-12-22T18:20:47.088Z,100004.97
2022-12-22T18:23:34.913Z,100013.09
2022-12-22T18:26:08.593Z,100006.69
2022-12-22T18:28:38.049Z,100014.09
2022-12-22T18:31:07.563Z,100019.84
2022-12-22T18:33:34.453Z,100017.66
2022-12-22T18:36:03.847Z,100028.59
2022-12-22T18:38:36.905Z,100033.31
2022-12-22T18:41:06.183Z,100033.63
2022-12-22T18:43:33.062Z,100033.31
2022-12-22T18:45:59.919Z,100040.00
2022-12-22T18:48:26.796Z,100035.47
2022-12-22T18:50:53.910Z,100023.19
2022-12-22T18:53:30.547Z,100025.22
2022-12-22T18:55:58.967Z,100027.94
2022-12-22T18:58:28.983Z,100034.88
2022-12-22T19:00:56.538Z,100022.53
2022-12-22T19:03:30.233Z,100030.66
2022-12-22T19:05:58.446Z,100026.28
2022-12-22T19:08:32.933Z,100025.59
2022-12-22T19:11:06.802Z,100019.19
2022-12-22T19:13:48.717Z,100024.59
2022-12-22T19:16:25.076Z,100014.47
2022-12-22T19:18:52.102Z,100013.97
2022-12-22T19:21:19.606Z,100013.47
2022-12-22T19:23:46.642Z,100007.38
2022-12-22T19:26:29.957Z,100005.53
2022-12-22T19:29:02.394Z,100012.09
2022-12-22T19:31:35.014Z,100002.34
2022-12-22T19:34:09.531Z,100002.00
2022-12-22T19:36:36.415Z,99995.41
2022-12-22T19:39:06.248Z,100000.28
2022-12-22T19:41:46.088Z,99997.78
2022-12-22T19:44:25.348Z,100005.00
2022-12-22T19:46:59.187Z,100002.31
2022-12-22T19:49:27.589Z,99999.63
2022-12-22T19:51:58.136Z,99995.91
2022-12-22T19:54:32.600Z,99996.41
2022-12-22T19:56:59.774Z,99991.19
2022-12-22T19:59:42.817Z,99994.56
2022-12-22T20:02:26.505Z,99990.50
2022-12-22T20:04:54.964Z,99984.09
2022-12-22T20:07:25.061Z,99989.81
2022-12-22T20:09:54.643Z,99987.44
2022-12-22T20:12:25.695Z,99995.56
2022-12-22T20:14:53.557Z,99994.88
2022-12-22T20:17:21.554Z,99990.50
2022-12-22T20:19:48.833Z,99993.38
2022-12-22T20:22:20.420Z,99991.19
2022-12-22T20:24:50.225Z,99998.28
2022-12-22T20:27:37.354Z,99998.63
2022-12-22T20:30:15.798Z,99991.69
2022-12-22T20:32:44.010Z,99995.22
2022-12-22T20:35:14.762Z,99988.78
2022-12-22T20:37:41.938Z,99985.44
2022-12-22T20:40:30.314Z,99981.94
2022-12-22T20:42:59.640Z,99983.72
2022-12-22T20:45:36.174Z,99981.88
2022-12-22T20:48:05.710Z,99972.31
2022-12-22T20:50:34.910Z,99973.47
2022-12-22T20:53:02.005Z,99973.63
2022-12-22T20:55:29.259Z,99969.09
2022-12-22T20:57:56.245Z,99976.31
2022-12-22T21:00:27.711Z,99973.75
2022-12-22T21:02:55.279Z,99975.75
2022-12-22T21:05:27.250Z,99965.03
2022-12-22T21:07:55.132Z,99962.44
2022-12-22T21:10:26.605Z,99971.56
2022-12-22T21:13:05.776Z,99966.91
2022-12-22T21:15:36.118Z,99964.72
2022-12-22T21:18:04.652Z,99959.69
2022-12-22T21:20:32.276Z,99958.19
2022-12-22T21:22:59.394Z,99954.97
2022-12-22T21:25:26.847Z,99948.50
2022-12-22T21:27:54.067Z,99950.22
2022-12-22T21:30:25.193Z,99946.59
2022-12-22T21:32:52.613Z,99942.00
2022-12-22T21:35:27.199Z,99935.09
2022-12-22T21:37:55.421Z,99935.56
2022-12-22T21:40:28.340Z,99934.72
2022-12-22T21:42:56.783Z,99939.63
2022-12-22T21:45:30.477Z,99940.06
2022-12-22T21:48:04.105Z,99940.69
2022-12-22T21:50:34.329Z,99942.94
2022-12-22T21:53:04.219Z,99947.81
2022-12-22T21:55:35.120Z,99933.56
2022-12-22T21:58:04.817Z,99943.00
2022-12-22T22:00:33.271Z,99945.69
2022-12-22T22:03:06.240Z,99941.69
2022-12-22T22:05:43.713Z,99939.47
2022-12-22T22:08:12.305Z,99933.69
2022-12-22T22:10:43.201Z,99928.41
2022-12-22T22:13:15.183Z,99927.47
2022-12-22T22:15:42.600Z,99930.34
2022-12-22T22:18:16.484Z,99927.94
2022-12-22T22:20:43.605Z,99933.28
2022-12-22T22:23:13.349Z,99923.19
2022-12-22T22:25:45.944Z,99924.88
2022-12-22T22:28:12.912Z,99926.56
2022-12-22T22:30:42.039Z,99919.75
2022-12-22T22:33:10.528Z,99920.47
2022-12-22T22:35:40.795Z,99919.53
2022-12-22T22:38:15.351Z,99916.81
2022-12-22T22:40:50.758Z,99909.00
2022-12-22T22:43:18.107Z,99899.25
2022-12-22T22:45:46.271Z,99896.72
2022-12-22T22:48:24.555Z,99895.63
2022-12-22T22:50:54.010Z,99889.50
2022-12-22T22:53:23.396Z,99894.78
2022-12-22T22:55:50.206Z,99897.00
2022-12-22T22:58:17.106Z,99885.63
2022-12-22T23:00:46.274Z,99878.75
2022-12-22T23:03:13.219Z,99880.84
2022-12-22T23:05:40.133Z,99877.03
2022-12-22T23:08:07.129Z,99876.19
2022-12-22T23:10:41.583Z,99880.97
2022-12-22T23:13:09.121Z,99881.53
2022-12-22T23:15:38.181Z,99884.38
2022-12-22T23:18:05.142Z,99887.69
2022-12-22T23:20:34.215Z,99880.59
2022-12-22T23:23:01.084Z,99884.13
2022-12-22T23:25:27.999Z,99880.94
2022-12-22T23:27:54.823Z,99890.22
2022-12-22T23:30:21.674Z,99884.50
2022-12-22T23:32:53.931Z,99878.22
2022-12-22T23:35:20.882Z,99873.63
2022-12-22T23:37:47.727Z,99877.69
2022-12-22T23:43:11.075Z,99853.72
2022-12-22T23:45:39.824Z,99864.31
2022-12-22T23:48:09.951Z,99858.75
2022-12-22T23:50:41.863Z,99853.72
2022-12-22T23:53:08.814Z,99849.66
2022-12-22T23:55:35.695Z,99853.66
2022-12-22T23:58:02.728Z,99851.53
